KBEH/BEH METAR and TAF weather

Enter ICAO airport designator
Station Type Date Time Source
KBEH METAR 2019/12/08 18:53 UTC NOAA

KBEH 081853Z AUTO 21012G22KT 9SM CLR 09/03 A2987 RMK AO2 SLP118 T00890028


Station Type Date Time Source
KBEH Decoded METAR 2019/12/08 18:53 UTC NOAA

SOUTHWEST MICHIGAN REGIONAL, MI, United States (KBEH) 42-08N 86-25W 191M
Dec 08, 2019 - 01:53 PM EST / 2019.12.08 1853 UTC
Wind: from the SSW (210 degrees) at 14 MPH (12 KT) gusting to 25 MPH (22 KT):0
Visibility: 9 mile(s):0
Sky conditions: clear
Temperature: 48.0 F (8.9 C)
Dew Point: 37.0 F (2.8 C)
Relative Humidity: 65%
Pressure (altimeter): 29.87 in. Hg (1011 hPa)
ob: KBEH 081853Z AUTO 21012G22KT 9SM CLR 09/03 A2987 RMK AO2 SLP118 T00890028
cycle: 19

Station Type Date Time Source
KBEH TAF UTC NOAA

Error!

Example: see airport list